Time;durP1;ratioP1;P1;durP2;ratioP2;P2;SDS_P1;SDS_P2;PMS_P1;PMS_P2;Temp;Humidity;BMP_temperature;BMP_pressure;BME280_temperature;BME280_humidity;BME280_pressure;Samples;Min_cycle;Max_cycle;Signal;HPM_P1;HPM_P2
2022/02/07 00:00:40;;;;;;;32.15;8.52;;;3.30;99.90;;;;;;5020263;28;20042;-64
2022/02/07 00:05:36;;;;;;;33.40;6.75;;;3.30;99.90;;;;;;5024983;28;20052;-64
2022/02/07 00:08:03;;;;;;;23.02;6.00;;;3.30;99.90;;;;;;5021243;28;20071;-64
2022/02/07 00:10:28;;;;;;;33.72;6.80;;;3.30;99.90;;;;;;5025545;28;20435;-64
2022/02/07 00:12:54;;;;;;;22.98;4.28;;;3.40;99.90;;;;;;5025831;28;20115;-64
2022/02/07 00:15:21;;;;;;;21.85;5.97;;;3.40;99.90;;;;;;5024213;28;20080;-64
2022/02/07 00:17:47;;;;;;;42.85;11.93;;;3.60;99.90;;;;;;5023170;28;20152;-64
2022/02/07 00:20:17;;;;;;;21.02;5.35;;;3.60;99.90;;;;;;5040655;28;20048;-64
2022/02/07 00:22:44;;;;;;;18.75;2.33;;;3.50;99.90;;;;;;5012686;28;20048;-64
2022/02/07 00:25:10;;;;;;;16.45;2.22;;;3.40;99.90;;;;;;5024806;28;20488;-64
2022/02/07 00:27:36;;;;;;;16.30;2.78;;;3.40;99.90;;;;;;5024294;28;20515;-64
2022/02/07 00:30:05;;;;;;;23.30;5.80;;;3.40;99.90;;;;;;5022153;28;20049;-65
2022/02/07 00:32:31;;;;;;;24.25;6.32;;;3.40;99.90;;;;;;5040704;28;20408;-64
2022/02/07 00:34:57;;;;;;;32.22;9.30;;;3.40;99.90;;;;;;5039112;28;20091;-64
2022/02/07 00:37:28;;;;;;;27.35;7.10;;;3.50;99.90;;;;;;5023982;28;20120;-64
2022/02/07 00:40:03;;;;;;;35.70;9.68;;;3.50;99.90;;;;;;5014260;28;20044;-64
2022/02/07 00:42:33;;;;;;;17.70;4.43;;;3.60;99.90;;;;;;5024003;28;20542;-64
2022/02/07 00:45:13;;;;;;;27.60;7.45;;;3.70;99.90;;;;;;5024560;28;20042;-64
2022/02/07 00:47:39;;;;;;;33.10;7.32;;;3.70;99.90;;;;;;5024571;28;20052;-64
2022/02/07 00:50:05;;;;;;;28.67;7.22;;;3.90;99.90;;;;;;5016528;28;20440;-64
2022/02/07 00:52:31;;;;;;;27.08;5.28;;;4.00;99.90;;;;;;5039457;28;20684;-64
2022/02/07 00:54:56;;;;;;;26.15;4.80;;;4.10;99.90;;;;;;5024503;28;20099;-64
2022/02/07 00:57:22;;;;;;;28.77;7.18;;;4.20;99.90;;;;;;5024981;28;20042;-65
2022/02/07 00:59:48;;;;;;;27.73;6.05;;;4.30;99.90;;;;;;5019277;28;20404;-64
2022/02/07 01:02:14;;;;;;;28.42;9.15;;;4.30;99.90;;;;;;5015980;28;20042;-64
2022/02/07 01:04:39;;;;;;;33.05;9.13;;;4.40;99.90;;;;;;5024655;28;20045;-64
2022/02/07 01:07:08;;;;;;;38.80;10.98;;;4.50;99.90;;;;;;5024909;28;20033;-64
2022/02/07 01:09:53;;;;;;;33.53;5.65;;;4.60;99.90;;;;;;5028121;28;20069;-64
2022/02/07 01:12:37;;;;;;;24.48;7.60;;;4.70;99.90;;;;;;5024895;28;20087;-64
2022/02/07 01:23:22;;;;;;;26.27;7.57;;;4.80;99.90;;;;;;5025986;28;20241;-64
2022/02/07 01:55:40;;;;;;;31.25;5.03;;;4.90;99.90;;;;;;5027742;28;20491;-64
2022/02/07 01:58:06;;;;;;;37.00;7.17;;;4.90;99.90;;;;;;5027418;28;20393;-64
2022/02/07 02:00:34;;;;;;;37.38;6.22;;;4.80;99.90;;;;;;5026574;28;20096;-64
2022/02/07 02:03:00;;;;;;;37.03;5.30;;;4.90;99.90;;;;;;5020713;28;20116;-64
2022/02/07 02:05:28;;;;;;;44.97;7.03;;;4.90;99.90;;;;;;5022722;28;20125;-64
2022/02/07 02:07:53;;;;;;;35.78;8.02;;;5.00;99.90;;;;;;5027010;28;20042;-64
2022/02/07 02:10:19;;;;;;;34.35;7.70;;;5.10;99.90;;;;;;5026694;28;20091;-64
2022/02/07 02:13:39;;;;;;;48.25;7.68;;;5.10;99.90;;;;;;5025220;28;20476;-64
2022/02/07 02:18:38;;;;;;;38.47;7.47;;;5.20;99.90;;;;;;5026845;28;20045;-64
2022/02/07 02:37:29;;;;;;;32.75;7.22;;;5.20;99.90;;;;;;5003246;28;20045;-64
2022/02/07 02:47:50;;;;;;;40.55;7.63;;;5.00;99.90;;;;;;5025537;28;20041;-64
2022/02/07 02:50:37;;;;;;;43.30;8.45;;;5.00;99.90;;;;;;5024514;28;20116;-64
2022/02/07 02:53:10;;;;;;;35.40;7.25;;;4.90;99.90;;;;;;5024222;28;20057;-64
2022/02/07 02:55:41;;;;;;;31.77;5.22;;;5.00;99.90;;;;;;5027101;28;20053;-64
2022/02/07 02:58:09;;;;;;;33.47;6.43;;;5.00;99.90;;;;;;5025813;28;20045;-64
2022/02/07 03:00:36;;;;;;;31.20;5.00;;;5.10;99.90;;;;;;5026709;28;20506;-64
2022/02/07 03:03:02;;;;;;;40.58;6.50;;;5.10;99.90;;;;;;5024744;28;20045;-64
2022/02/07 03:05:29;;;;;;;45.83;8.65;;;5.00;99.90;;;;;;5024473;28;20408;-64
2022/02/07 03:07:55;;;;;;;37.30;6.57;;;5.00;99.90;;;;;;5026345;28;20060;-64
2022/02/07 03:10:31;;;;;;;32.83;5.20;;;4.90;99.90;;;;;;5024481;28;20377;-64
2022/02/07 03:13:12;;;;;;;36.97;8.32;;;5.00;99.90;;;;;;5022407;28;20093;-64
2022/02/07 03:18:25;;;;;;;37.50;9.35;;;5.00;99.90;;;;;;5014487;28;20079;-64
2022/02/07 03:20:51;;;;;;;42.70;8.95;;;4.90;99.90;;;;;;5024016;28;20207;-64
2022/02/07 03:23:17;;;;;;;43.85;8.40;;;5.00;99.90;;;;;;5023792;28;20531;-64
2022/02/07 03:25:43;;;;;;;36.45;6.00;;;5.00;99.90;;;;;;5025143;28;20136;-64
2022/02/07 03:28:09;;;;;;;46.40;7.90;;;5.00;99.90;;;;;;5005521;28;20172;-64
2022/02/07 03:30:36;;;;;;;32.50;5.68;;;5.00;99.90;;;;;;5017956;28;20407;-64
2022/02/07 03:33:02;;;;;;;38.83;6.63;;;5.00;99.90;;;;;;5025101;28;20103;-64
2022/02/07 03:35:28;;;;;;;40.72;7.60;;;5.10;99.90;;;;;;5024296;28;20283;-64
2022/02/07 03:37:54;;;;;;;46.47;6.57;;;5.10;99.90;;;;;;5025605;28;20442;-64
2022/02/07 03:40:20;;;;;;;42.88;6.80;;;5.20;99.90;;;;;;5025783;28;20038;-64
2022/02/07 03:42:46;;;;;;;48.72;7.63;;;5.30;99.90;;;;;;5024601;28;20503;-65
2022/02/07 03:45:11;;;;;;;38.40;6.07;;;5.30;99.90;;;;;;5024806;28;20053;-65
2022/02/07 03:47:37;;;;;;;36.08;6.97;;;5.40;99.90;;;;;;5026286;28;20049;-64
2022/02/07 03:50:04;;;;;;;39.97;6.05;;;5.50;99.90;;;;;;5023571;28;20037;-64
2022/02/07 03:52:32;;;;;;;32.80;6.55;;;5.50;99.90;;;;;;5022364;28;20073;-64
2022/02/07 03:54:57;;;;;;;38.78;6.85;;;5.60;99.90;;;;;;5024755;28;20045;-64
2022/02/07 03:57:23;;;;;;;34.58;7.20;;;5.60;99.90;;;;;;5025521;28;20046;-64
2022/02/07 03:59:49;;;;;;;42.45;6.53;;;5.60;99.90;;;;;;5024401;28;20041;-65
2022/02/07 04:02:15;;;;;;;44.88;6.68;;;5.70;99.90;;;;;;5023055;28;20095;-64
2022/02/07 04:04:44;;;;;;;30.80;5.38;;;5.70;99.90;;;;;;5025714;28;20053;-64
2022/02/07 04:07:11;;;;;;;34.38;5.75;;;5.70;99.90;;;;;;5025143;28;20530;-64
2022/02/07 04:09:41;;;;;;;38.97;5.75;;;5.80;99.90;;;;;;5026224;28;20077;-64
2022/02/07 04:12:21;;;;;;;30.67;5.82;;;5.80;99.90;;;;;;5023406;28;20550;-64
2022/02/07 04:14:47;;;;;;;47.58;7.35;;;5.60;99.90;;;;;;5025063;28;20064;-64
2022/02/07 04:17:20;;;;;;;42.47;5.40;;;5.10;99.90;;;;;;5025574;28;20045;-65
2022/02/07 04:19:45;;;;;;;54.45;7.35;;;4.80;99.90;;;;;;5010523;28;20042;-64
2022/02/07 04:22:11;;;;;;;41.72;4.47;;;4.70;99.90;;;;;;5017970;28;20061;-64
2022/02/07 04:24:37;;;;;;;36.63;4.28;;;4.70;99.90;;;;;;5022843;28;20037;-64
2022/02/07 04:27:03;;;;;;;21.90;3.40;;;4.70;99.90;;;;;;5025354;28;20049;-64
2022/02/07 04:29:29;;;;;;;24.38;3.80;;;4.60;99.90;;;;;;5024452;28;20041;-65
2022/02/07 04:31:55;;;;;;;27.90;4.20;;;4.60;99.90;;;;;;5023827;28;20107;-64
2022/02/07 04:34:20;;;;;;;31.13;6.22;;;4.70;99.90;;;;;;5024167;28;20045;-65
2022/02/07 04:36:51;;;;;;;29.27;5.13;;;4.80;99.90;;;;;;5025210;28;20045;-64
2022/02/07 04:39:17;;;;;;;12.48;1.88;;;4.80;99.90;;;;;;5024115;28;20037;-64
2022/02/07 04:41:43;;;;;;;9.10;1.52;;;4.60;99.90;;;;;;5022928;28;20506;-64
2022/02/07 04:44:14;;;;;;;9.57;2.00;;;4.50;99.90;;;;;;5025244;28;20452;-64
2022/02/07 04:49:19;;;;;;;11.35;2.15;;;4.40;99.90;;;;;;5025155;28;20041;-64
2022/02/07 04:52:04;;;;;;;18.90;2.95;;;4.50;99.90;;;;;;5021557;28;20056;-64
2022/02/07 04:57:09;;;;;;;19.23;3.03;;;4.70;99.90;;;;;;5035991;28;20046;-64
2022/02/07 04:59:53;;;;;;;16.00;2.35;;;4.80;99.90;;;;;;5031858;28;20108;-64
2022/02/07 05:02:37;;;;;;;18.27;2.95;;;4.80;99.90;;;;;;5016856;28;20053;-64
2022/02/07 05:15:46;;;;;;;27.10;3.17;;;4.80;99.90;;;;;;5040688;28;20480;-64
2022/02/07 05:18:11;;;;;;;31.75;4.57;;;4.90;99.90;;;;;;5028983;28;20419;-64
2022/02/07 05:20:37;;;;;;;26.38;4.70;;;5.00;99.90;;;;;;5027959;28;20403;-65
2022/02/07 05:23:03;;;;;;;26.80;4.00;;;5.00;99.90;;;;;;5040750;28;20750;-64
2022/02/07 05:25:29;;;;;;;34.88;4.20;;;5.10;99.90;;;;;;5019312;28;20042;-65
2022/02/07 05:27:55;;;;;;;28.58;4.88;;;5.20;99.90;;;;;;5028693;28;20124;-64
2022/02/07 05:30:20;;;;;;;28.80;5.05;;;5.10;99.90;;;;;;5026511;28;20057;-65
2022/02/07 05:32:46;;;;;;;22.15;4.40;;;5.20;99.90;;;;;;5028233;28;20049;-64
2022/02/07 05:35:12;;;;;;;27.08;4.35;;;5.10;99.90;;;;;;5025283;28;20458;-65
2022/02/07 05:37:38;;;;;;;24.88;4.25;;;4.90;99.90;;;;;;5027539;28;20488;-64
2022/02/07 05:40:10;;;;;;;25.30;2.95;;;4.70;99.90;;;;;;5043752;28;20045;-64
2022/02/07 05:42:37;;;;;;;19.52;3.15;;;4.50;99.90;;;;;;5027375;28;20081;-64
2022/02/07 05:45:06;;;;;;;20.38;3.38;;;4.40;99.90;;;;;;5020663;28;20099;-64
2022/02/07 05:47:32;;;;;;;17.23;2.88;;;4.40;99.90;;;;;;5027589;28;20072;-65
2022/02/07 05:49:58;;;;;;;24.40;3.42;;;4.40;99.90;;;;;;5027689;28;20504;-64
2022/02/07 05:52:23;;;;;;;22.35;2.90;;;4.40;99.90;;;;;;5025882;28;20136;-65
2022/02/07 05:54:49;;;;;;;24.60;4.05;;;4.50;99.90;;;;;;5027379;28;20110;-65
2022/02/07 05:57:15;;;;;;;27.02;3.72;;;4.50;99.90;;;;;;5026661;28;20582;-64
2022/02/07 05:59:41;;;;;;;20.73;3.83;;;4.50;99.90;;;;;;5026890;28;20049;-64
2022/02/07 06:02:06;;;;;;;34.42;4.55;;;4.50;99.90;;;;;;5027804;28;20033;-64
2022/02/07 06:04:32;;;;;;;31.23;4.10;;;4.50;99.90;;;;;;5024030;28;20036;-65
2022/02/07 06:06:58;;;;;;;26.05;4.88;;;4.40;99.90;;;;;;5027300;28;20075;-64
2022/02/07 06:09:24;;;;;;;36.53;4.30;;;4.40;99.90;;;;;;5026493;28;20049;-65
2022/02/07 06:11:50;;;;;;;39.22;6.13;;;4.40;99.90;;;;;;5025523;28;20046;-65
2022/02/07 06:14:16;;;;;;;33.88;5.45;;;4.50;99.90;;;;;;5014019;28;20060;-65
2022/02/07 06:16:42;;;;;;;41.08;6.18;;;4.60;99.90;;;;;;5024404;28;20052;-64
2022/02/07 06:19:08;;;;;;;36.65;5.88;;;4.60;99.90;;;;;;5027454;28;20085;-64
2022/02/07 06:21:34;;;;;;;42.20;5.55;;;4.70;99.90;;;;;;5041347;28;20452;-65
2022/02/07 06:24:02;;;;;;;43.17;8.95;;;4.70;99.90;;;;;;5027558;28;20116;-64
2022/02/07 06:26:31;;;;;;;46.92;7.75;;;4.70;99.90;;;;;;5020034;28;20507;-64
2022/02/07 06:28:58;;;;;;;55.43;8.67;;;4.70;99.90;;;;;;5026066;28;20052;-64
2022/02/07 06:31:25;;;;;;;50.00;7.38;;;4.80;99.90;;;;;;5025720;28;20123;-64
2022/02/07 06:33:54;;;;;;;46.10;10.00;;;4.80;99.90;;;;;;5027015;28;20049;-64
2022/02/07 06:36:20;;;;;;;55.22;11.70;;;4.80;99.90;;;;;;5022226;28;20049;-64
2022/02/07 06:38:48;;;;;;;56.85;12.27;;;4.90;99.90;;;;;;5025936;28;20146;-64
2022/02/07 06:41:14;;;;;;;54.15;10.05;;;4.80;99.90;;;;;;5027001;28;20047;-64
2022/02/07 06:43:39;;;;;;;53.55;9.43;;;4.80;99.90;;;;;;5024505;28;20053;-64
2022/02/07 06:46:05;;;;;;;60.58;8.43;;;4.80;99.90;;;;;;5026066;28;20040;-64
2022/02/07 06:48:31;;;;;;;48.15;6.35;;;4.80;99.90;;;;;;5024505;28;20081;-65
2022/02/07 06:50:57;;;;;;;57.38;6.82;;;4.90;99.90;;;;;;5041887;28;20123;-64
2022/02/07 06:53:23;;;;;;;53.47;8.90;;;4.90;99.90;;;;;;5017242;28;20888;-64
2022/02/07 06:55:49;;;;;;;48.72;6.95;;;4.80;99.90;;;;;;4997777;28;20246;-64
2022/02/07 06:58:15;;;;;;;54.25;7.90;;;4.80;99.90;;;;;;5008417;28;20049;-64
2022/02/07 07:00:41;;;;;;;58.40;9.55;;;4.90;99.90;;;;;;5012061;28;20437;-64
2022/02/07 07:03:13;;;;;;;64.10;9.63;;;4.90;99.90;;;;;;5014079;28;20123;-64
2022/02/07 07:05:40;;;;;;;51.78;8.60;;;5.00;99.90;;;;;;5013089;28;20069;-64
2022/02/07 07:08:05;;;;;;;64.15;9.07;;;4.90;99.90;;;;;;5019564;28;20045;-64
2022/02/07 07:10:31;;;;;;;44.85;7.00;;;4.90;99.90;;;;;;5007818;28;20053;-65
2022/02/07 07:13:04;;;;;;;57.78;8.70;;;5.00;99.90;;;;;;4988967;28;20114;-64
2022/02/07 07:15:38;;;;;;;44.22;7.47;;;5.10;99.90;;;;;;5005499;28;20045;-64
